Belmont, Washington
Current Conditions -  °F | °C
As of 9:53 PM on Thursday 30 Oct 2014 (Local Time) from KPUW Reporting Station
Clear Clear  
Wind Chill: 57°   Ceiling: Unl
Heat Index: 57°   Visibility: 8mi
Dew Point: 44°   Wind: 16mph
Humidity: 62%   Direction: 100°E
Pressure: 29.83"   Gusts: NA
Location:  47.09°N, 117.16°W
Report Text: KPUW 310453Z AUTO 10014KT 8SM CLR 14/07 A2983 RMK AO2 SLP101 T01390067
Loading
Personal Weather Stations






























Interactive Weather Map
Tropical Storm Tracking
New forecast layout! Learn more

10-Day Weather Forecast

Advertisements
Track Severe Weather on mobile